sensor_id;sensor_type;location;lat;lon;timestamp;P1;durP1;ratioP1;P2;durP2;ratioP2
6269;SDS011;3168;51.684;6.954;2024-01-16T00:00:02;4.70;;;4.40;;
6269;SDS011;3168;51.684;6.954;2024-01-16T00:02:29;2.83;;;2.73;;
6269;SDS011;3168;51.684;6.954;2024-01-16T00:04:55;5.80;;;4.97;;
6269;SDS011;3168;51.684;6.954;2024-01-16T00:07:21;6.50;;;5.13;;
6269;SDS011;3168;51.684;6.954;2024-01-16T00:09:47;7.13;;;6.43;;
6269;SDS011;3168;51.684;6.954;2024-01-16T00:12:13;3.93;;;3.63;;
6269;SDS011;3168;51.684;6.954;2024-01-16T00:14:39;4.83;;;4.43;;
6269;SDS011;3168;51.684;6.954;2024-01-16T00:17:05;4.57;;;4.00;;
6269;SDS011;3168;51.684;6.954;2024-01-16T00:19:31;2.80;;;2.70;;
6269;SDS011;3168;51.684;6.954;2024-01-16T00:21:57;3.47;;;3.27;;
6269;SDS011;3168;51.684;6.954;2024-01-16T00:24:23;4.10;;;3.80;;
6269;SDS011;3168;51.684;6.954;2024-01-16T00:26:49;3.23;;;3.07;;
6269;SDS011;3168;51.684;6.954;2024-01-16T00:29:15;4.53;;;4.07;;
6269;SDS011;3168;51.684;6.954;2024-01-16T00:31:41;4.40;;;2.40;;
6269;SDS011;3168;51.684;6.954;2024-01-16T00:34:07;3.57;;;3.40;;
6269;SDS011;3168;51.684;6.954;2024-01-16T00:36:33;2.93;;;2.83;;
6269;SDS011;3168;51.684;6.954;2024-01-16T00:38:59;4.00;;;3.73;;
6269;SDS011;3168;51.684;6.954;2024-01-16T00:41:25;4.60;;;3.13;;
6269;SDS011;3168;51.684;6.954;2024-01-16T00:43:51;2.23;;;2.07;;
6269;SDS011;3168;51.684;6.954;2024-01-16T00:46:17;3.50;;;3.40;;
6269;SDS011;3168;51.684;6.954;2024-01-16T00:48:43;2.93;;;2.60;;
6269;SDS011;3168;51.684;6.954;2024-01-16T00:51:09;3.53;;;3.30;;
6269;SDS011;3168;51.684;6.954;2024-01-16T00:53:39;11.20;;;3.23;;
6269;SDS011;3168;51.684;6.954;2024-01-16T00:56:05;3.87;;;3.63;;
6269;SDS011;3168;51.684;6.954;2024-01-16T00:58:31;6.93;;;3.97;;
6269;SDS011;3168;51.684;6.954;2024-01-16T01:00:57;2.90;;;2.70;;
6269;SDS011;3168;51.684;6.954;2024-01-16T01:03:23;3.10;;;3.00;;
6269;SDS011;3168;51.684;6.954;2024-01-16T01:05:48;2.57;;;2.47;;
6269;SDS011;3168;51.684;6.954;2024-01-16T01:08:15;2.83;;;2.60;;
6269;SDS011;3168;51.684;6.954;2024-01-16T01:10:40;3.07;;;2.97;;
6269;SDS011;3168;51.684;6.954;2024-01-16T01:13:06;2.50;;;2.30;;
6269;SDS011;3168;51.684;6.954;2024-01-16T01:15:32;2.80;;;2.60;;
6269;SDS011;3168;51.684;6.954;2024-01-16T01:17:58;4.10;;;3.80;;
6269;SDS011;3168;51.684;6.954;2024-01-16T01:20:24;2.83;;;2.73;;
6269;SDS011;3168;51.684;6.954;2024-01-16T01:22:50;5.87;;;4.43;;
6269;SDS011;3168;51.684;6.954;2024-01-16T01:25:16;3.93;;;2.80;;
6269;SDS011;3168;51.684;6.954;2024-01-16T01:27:43;2.73;;;2.50;;
6269;SDS011;3168;51.684;6.954;2024-01-16T01:30:09;4.40;;;3.40;;
6269;SDS011;3168;51.684;6.954;2024-01-16T01:32:37;2.55;;;2.45;;
6269;SDS011;3168;51.684;6.954;2024-01-16T01:35:02;3.37;;;3.17;;
6269;SDS011;3168;51.684;6.954;2024-01-16T01:37:28;3.97;;;1.90;;
6269;SDS011;3168;51.684;6.954;2024-01-16T01:39:54;2.10;;;2.00;;
6269;SDS011;3168;51.684;6.954;2024-01-16T01:42:20;3.40;;;3.20;;
6269;SDS011;3168;51.684;6.954;2024-01-16T01:44:46;2.17;;;2.03;;
6269;SDS011;3168;51.684;6.954;2024-01-16T01:47:11;2.20;;;2.10;;
6269;SDS011;3168;51.684;6.954;2024-01-16T01:49:37;2.70;;;2.50;;
6269;SDS011;3168;51.684;6.954;2024-01-16T01:52:03;2.77;;;2.60;;
6269;SDS011;3168;51.684;6.954;2024-01-16T01:54:29;3.93;;;3.63;;
6269;SDS011;3168;51.684;6.954;2024-01-16T01:56:55;5.60;;;4.20;;
6269;SDS011;3168;51.684;6.954;2024-01-16T01:59:21;9.27;;;4.00;;
6269;SDS011;3168;51.684;6.954;2024-01-16T02:01:47;3.00;;;2.80;;
6269;SDS011;3168;51.684;6.954;2024-01-16T02:04:14;2.90;;;2.80;;
6269;SDS011;3168;51.684;6.954;2024-01-16T02:06:39;3.20;;;2.90;;
6269;SDS011;3168;51.684;6.954;2024-01-16T02:09:05;3.03;;;2.80;;
6269;SDS011;3168;51.684;6.954;2024-01-16T02:11:32;20.87;;;3.37;;
6269;SDS011;3168;51.684;6.954;2024-01-16T02:13:58;2.60;;;2.43;;
6269;SDS011;3168;51.684;6.954;2024-01-16T02:16:24;2.00;;;1.67;;
6269;SDS011;3168;51.684;6.954;2024-01-16T02:18:50;5.93;;;3.07;;
6269;SDS011;3168;51.684;6.954;2024-01-16T02:21:22;4.43;;;3.17;;
6269;SDS011;3168;51.684;6.954;2024-01-16T02:23:50;4.40;;;3.60;;
6269;SDS011;3168;51.684;6.954;2024-01-16T02:26:17;8.43;;;3.53;;
6269;SDS011;3168;51.684;6.954;2024-01-16T02:28:44;3.80;;;3.30;;
6269;SDS011;3168;51.684;6.954;2024-01-16T02:31:10;2.57;;;2.47;;
6269;SDS011;3168;51.684;6.954;2024-01-16T02:33:36;4.73;;;4.10;;
6269;SDS011;3168;51.684;6.954;2024-01-16T02:36:02;3.70;;;3.40;;
6269;SDS011;3168;51.684;6.954;2024-01-16T02:38:28;2.87;;;2.67;;
6269;SDS011;3168;51.684;6.954;2024-01-16T02:40:54;4.37;;;3.67;;
6269;SDS011;3168;51.684;6.954;2024-01-16T02:43:20;2.63;;;2.53;;
6269;SDS011;3168;51.684;6.954;2024-01-16T02:45:46;5.80;;;4.00;;
6269;SDS011;3168;51.684;6.954;2024-01-16T02:48:12;2.53;;;2.43;;
6269;SDS011;3168;51.684;6.954;2024-01-16T02:50:38;3.00;;;2.90;;
6269;SDS011;3168;51.684;6.954;2024-01-16T02:53:04;3.57;;;3.33;;
6269;SDS011;3168;51.684;6.954;2024-01-16T02:55:31;2.50;;;2.27;;
6269;SDS011;3168;51.684;6.954;2024-01-16T02:57:56;1.83;;;1.73;;
6269;SDS011;3168;51.684;6.954;2024-01-16T03:00:22;3.77;;;2.77;;
6269;SDS011;3168;51.684;6.954;2024-01-16T03:02:48;3.60;;;2.87;;
6269;SDS011;3168;51.684;6.954;2024-01-16T03:05:14;38.97;;;4.80;;
6269;SDS011;3168;51.684;6.954;2024-01-16T03:07:40;4.00;;;3.80;;
6269;SDS011;3168;51.684;6.954;2024-01-16T03:10:06;6.50;;;2.80;;
6269;SDS011;3168;51.684;6.954;2024-01-16T03:12:32;3.27;;;3.07;;
6269;SDS011;3168;51.684;6.954;2024-01-16T03:14:58;3.50;;;3.30;;
6269;SDS011;3168;51.684;6.954;2024-01-16T03:17:23;5.27;;;4.80;;
6269;SDS011;3168;51.684;6.954;2024-01-16T03:19:49;6.13;;;2.57;;
6269;SDS011;3168;51.684;6.954;2024-01-16T03:22:15;2.93;;;2.50;;
6269;SDS011;3168;51.684;6.954;2024-01-16T03:24:41;3.37;;;3.27;;
6269;SDS011;3168;51.684;6.954;2024-01-16T03:27:07;4.20;;;3.10;;
6269;SDS011;3168;51.684;6.954;2024-01-16T03:29:33;3.80;;;2.40;;
6269;SDS011;3168;51.684;6.954;2024-01-16T03:31:59;4.13;;;3.87;;
6269;SDS011;3168;51.684;6.954;2024-01-16T03:34:25;3.27;;;3.03;;
6269;SDS011;3168;51.684;6.954;2024-01-16T03:36:51;2.50;;;2.40;;
6269;SDS011;3168;51.684;6.954;2024-01-16T03:39:17;7.63;;;6.87;;
6269;SDS011;3168;51.684;6.954;2024-01-16T03:41:43;3.90;;;3.50;;
6269;SDS011;3168;51.684;6.954;2024-01-16T03:44:08;6.00;;;4.93;;
6269;SDS011;3168;51.684;6.954;2024-01-16T03:46:34;4.10;;;3.37;;
6269;SDS011;3168;51.684;6.954;2024-01-16T03:49:00;5.63;;;4.03;;
6269;SDS011;3168;51.684;6.954;2024-01-16T03:51:26;3.77;;;3.60;;
6269;SDS011;3168;51.684;6.954;2024-01-16T03:53:51;22.97;;;4.00;;
6269;SDS011;3168;51.684;6.954;2024-01-16T03:56:18;3.50;;;3.30;;
6269;SDS011;3168;51.684;6.954;2024-01-16T03:58:44;25.00;;;4.50;;
6269;SDS011;3168;51.684;6.954;2024-01-16T04:01:10;4.27;;;4.00;;
6269;SDS011;3168;51.684;6.954;2024-01-16T04:03:35;5.00;;;4.60;;
6269;SDS011;3168;51.684;6.954;2024-01-16T04:08:39;10.77;;;5.93;;
6269;SDS011;3168;51.684;6.954;2024-01-16T04:11:05;2.47;;;2.33;;
6269;SDS011;3168;51.684;6.954;2024-01-16T04:13:30;3.27;;;3.03;;
6269;SDS011;3168;51.684;6.954;2024-01-16T04:15:56;7.10;;;5.90;;
6269;SDS011;3168;51.684;6.954;2024-01-16T04:18:22;8.83;;;5.50;;
6269;SDS011;3168;51.684;6.954;2024-01-16T04:20:48;3.93;;;3.70;;
6269;SDS011;3168;51.684;6.954;2024-01-16T04:23:15;4.97;;;4.50;;
6269;SDS011;3168;51.684;6.954;2024-01-16T04:25:41;2.67;;;2.43;;
6269;SDS011;3168;51.684;6.954;2024-01-16T04:28:06;6.50;;;5.73;;
6269;SDS011;3168;51.684;6.954;2024-01-16T04:30:32;4.43;;;4.00;;
6269;SDS011;3168;51.684;6.954;2024-01-16T04:32:58;3.22;;;3.03;;
6269;SDS011;3168;51.684;6.954;2024-01-16T04:35:24;4.80;;;4.47;;
6269;SDS011;3168;51.684;6.954;2024-01-16T04:37:50;3.57;;;3.37;;
6269;SDS011;3168;51.684;6.954;2024-01-16T04:40:16;5.37;;;3.90;;
6269;SDS011;3168;51.684;6.954;2024-01-16T04:42:42;3.70;;;3.40;;
6269;SDS011;3168;51.684;6.954;2024-01-16T04:45:09;3.33;;;3.03;;
6269;SDS011;3168;51.684;6.954;2024-01-16T04:47:35;3.17;;;2.97;;
6269;SDS011;3168;51.684;6.954;2024-01-16T04:50:02;4.00;;;3.60;;
6269;SDS011;3168;51.684;6.954;2024-01-16T04:52:28;3.10;;;2.90;;
6269;SDS011;3168;51.684;6.954;2024-01-16T04:54:53;4.47;;;4.10;;
6269;SDS011;3168;51.684;6.954;2024-01-16T04:57:19;2.20;;;2.10;;
6269;SDS011;3168;51.684;6.954;2024-01-16T04:59:46;3.17;;;3.07;;
6269;SDS011;3168;51.684;6.954;2024-01-16T05:02:12;2.70;;;2.53;;
6269;SDS011;3168;51.684;6.954;2024-01-16T05:04:38;3.40;;;3.30;;
6269;SDS011;3168;51.684;6.954;2024-01-16T05:07:04;3.77;;;3.40;;
6269;SDS011;3168;51.684;6.954;2024-01-16T05:09:29;2.20;;;2.10;;
6269;SDS011;3168;51.684;6.954;2024-01-16T05:11:55;3.50;;;3.30;;
6269;SDS011;3168;51.684;6.954;2024-01-16T05:14:21;17.17;;;3.50;;
6269;SDS011;3168;51.684;6.954;2024-01-16T05:16:47;3.40;;;3.20;;
6269;SDS011;3168;51.684;6.954;2024-01-16T05:19:13;4.10;;;3.70;;
6269;SDS011;3168;51.684;6.954;2024-01-16T05:21:40;1.70;;;1.63;;
6269;SDS011;3168;51.684;6.954;2024-01-16T05:24:04;7.00;;;2.60;;
6269;SDS011;3168;51.684;6.954;2024-01-16T05:26:31;1.80;;;1.80;;
6269;SDS011;3168;51.684;6.954;2024-01-16T05:28:57;3.70;;;3.23;;
6269;SDS011;3168;51.684;6.954;2024-01-16T05:31:22;3.30;;;2.83;;
6269;SDS011;3168;51.684;6.954;2024-01-16T05:33:49;1.85;;;1.75;;
6269;SDS011;3168;51.684;6.954;2024-01-16T05:36:15;5.10;;;4.53;;
6269;SDS011;3168;51.684;6.954;2024-01-16T05:38:41;5.60;;;4.30;;
6269;SDS011;3168;51.684;6.954;2024-01-16T05:41:07;2.20;;;2.10;;
6269;SDS011;3168;51.684;6.954;2024-01-16T05:43:33;10.97;;;4.37;;
6269;SDS011;3168;51.684;6.954;2024-01-16T05:45:59;1.80;;;1.70;;
6269;SDS011;3168;51.684;6.954;2024-01-16T05:48:25;4.10;;;3.53;;
6269;SDS011;3168;51.684;6.954;2024-01-16T05:50:51;3.03;;;2.83;;
6269;SDS011;3168;51.684;6.954;2024-01-16T05:53:17;3.30;;;3.00;;
6269;SDS011;3168;51.684;6.954;2024-01-16T05:55:43;4.47;;;4.07;;
6269;SDS011;3168;51.684;6.954;2024-01-16T05:58:09;3.63;;;2.93;;
6269;SDS011;3168;51.684;6.954;2024-01-16T06:00:35;1.67;;;1.67;;
6269;SDS011;3168;51.684;6.954;2024-01-16T06:03:01;2.77;;;2.63;;
6269;SDS011;3168;51.684;6.954;2024-01-16T06:05:27;6.27;;;3.10;;
6269;SDS011;3168;51.684;6.954;2024-01-16T06:07:53;1.80;;;1.70;;
6269;SDS011;3168;51.684;6.954;2024-01-16T06:10:19;3.60;;;3.40;;
6269;SDS011;3168;51.684;6.954;2024-01-16T06:12:44;5.03;;;3.73;;
6269;SDS011;3168;51.684;6.954;2024-01-16T06:15:10;3.87;;;3.57;;
6269;SDS011;3168;51.684;6.954;2024-01-16T06:17:37;3.83;;;2.67;;
6269;SDS011;3168;51.684;6.954;2024-01-16T06:20:03;3.43;;;3.13;;
6269;SDS011;3168;51.684;6.954;2024-01-16T06:22:30;2.43;;;2.33;;
6269;SDS011;3168;51.684;6.954;2024-01-16T06:24:56;2.80;;;2.60;;
6269;SDS011;3168;51.684;6.954;2024-01-16T06:27:22;2.33;;;2.23;;
6269;SDS011;3168;51.684;6.954;2024-01-16T06:29:48;3.60;;;3.30;;
6269;SDS011;3168;51.684;6.954;2024-01-16T06:32:14;2.97;;;2.80;;
6269;SDS011;3168;51.684;6.954;2024-01-16T06:34:40;3.00;;;2.77;;
6269;SDS011;3168;51.684;6.954;2024-01-16T06:37:05;2.53;;;2.37;;
6269;SDS011;3168;51.684;6.954;2024-01-16T06:39:31;3.70;;;3.47;;
6269;SDS011;3168;51.684;6.954;2024-01-16T06:41:57;5.43;;;4.40;;
6269;SDS011;3168;51.684;6.954;2024-01-16T06:44:23;3.30;;;3.07;;
6269;SDS011;3168;51.684;6.954;2024-01-16T06:46:49;3.67;;;3.37;;
6269;SDS011;3168;51.684;6.954;2024-01-16T06:49:15;5.23;;;4.60;;
6269;SDS011;3168;51.684;6.954;2024-01-16T06:51:41;11.13;;;3.30;;
6269;SDS011;3168;51.684;6.954;2024-01-16T06:54:07;4.53;;;4.23;;
6269;SDS011;3168;51.684;6.954;2024-01-16T06:56:33;3.70;;;3.40;;
6269;SDS011;3168;51.684;6.954;2024-01-16T06:58:59;6.30;;;4.10;;
6269;SDS011;3168;51.684;6.954;2024-01-16T07:01:26;5.93;;;5.43;;
6269;SDS011;3168;51.684;6.954;2024-01-16T07:03:52;8.47;;;5.17;;
6269;SDS011;3168;51.684;6.954;2024-01-16T07:06:18;4.40;;;4.20;;
6269;SDS011;3168;51.684;6.954;2024-01-16T07:08:45;4.93;;;4.50;;
6269;SDS011;3168;51.684;6.954;2024-01-16T07:11:10;5.60;;;4.80;;
6269;SDS011;3168;51.684;6.954;2024-01-16T07:13:36;7.77;;;6.57;;
6269;SDS011;3168;51.684;6.954;2024-01-16T07:16:02;4.63;;;4.23;;
6269;SDS011;3168;51.684;6.954;2024-01-16T07:18:28;4.40;;;4.00;;
6269;SDS011;3168;51.684;6.954;2024-01-16T07:20:54;13.10;;;7.30;;
6269;SDS011;3168;51.684;6.954;2024-01-16T07:23:20;8.60;;;6.90;;
6269;SDS011;3168;51.684;6.954;2024-01-16T07:25:45;5.53;;;5.17;;
6269;SDS011;3168;51.684;6.954;2024-01-16T07:28:12;10.93;;;8.10;;
6269;SDS011;3168;51.684;6.954;2024-01-16T07:30:38;6.87;;;6.23;;
6269;SDS011;3168;51.684;6.954;2024-01-16T07:33:04;11.10;;;6.60;;
6269;SDS011;3168;51.684;6.954;2024-01-16T07:35:30;12.83;;;9.43;;
6269;SDS011;3168;51.684;6.954;2024-01-16T07:37:55;10.30;;;8.83;;
6269;SDS011;3168;51.684;6.954;2024-01-16T07:40:21;15.93;;;8.60;;
6269;SDS011;3168;51.684;6.954;2024-01-16T07:42:47;7.87;;;7.20;;
6269;SDS011;3168;51.684;6.954;2024-01-16T07:45:13;4.33;;;4.10;;
6269;SDS011;3168;51.684;6.954;2024-01-16T07:47:39;15.73;;;6.03;;
6269;SDS011;3168;51.684;6.954;2024-01-16T07:50:05;9.07;;;8.20;;
6269;SDS011;3168;51.684;6.954;2024-01-16T07:52:32;10.27;;;8.37;;
6269;SDS011;3168;51.684;6.954;2024-01-16T07:54:58;7.27;;;6.57;;
6269;SDS011;3168;51.684;6.954;2024-01-16T07:57:24;9.13;;;7.07;;
6269;SDS011;3168;51.684;6.954;2024-01-16T07:59:50;6.67;;;5.87;;
6269;SDS011;3168;51.684;6.954;2024-01-16T08:02:15;13.53;;;7.90;;
6269;SDS011;3168;51.684;6.954;2024-01-16T08:04:41;5.93;;;5.50;;
6269;SDS011;3168;51.684;6.954;2024-01-16T08:07:07;7.27;;;6.80;;
6269;SDS011;3168;51.684;6.954;2024-01-16T08:09:34;11.67;;;6.03;;
6269;SDS011;3168;51.684;6.954;2024-01-16T08:12:00;4.90;;;4.63;;
6269;SDS011;3168;51.684;6.954;2024-01-16T08:14:26;6.93;;;6.57;;
6269;SDS011;3168;51.684;6.954;2024-01-16T08:16:52;4.63;;;4.33;;
6269;SDS011;3168;51.684;6.954;2024-01-16T08:19:18;5.27;;;4.60;;
6269;SDS011;3168;51.684;6.954;2024-01-16T08:21:43;5.67;;;5.20;;
6269;SDS011;3168;51.684;6.954;2024-01-16T08:24:09;3.53;;;3.33;;
6269;SDS011;3168;51.684;6.954;2024-01-16T08:26:35;4.53;;;4.23;;
6269;SDS011;3168;51.684;6.954;2024-01-16T08:29:01;3.23;;;3.13;;
6269;SDS011;3168;51.684;6.954;2024-01-16T08:31:27;11.40;;;3.67;;
6269;SDS011;3168;51.684;6.954;2024-01-16T08:33:52;5.50;;;3.72;;
6269;SDS011;3168;51.684;6.954;2024-01-16T08:36:18;3.13;;;3.03;;
6269;SDS011;3168;51.684;6.954;2024-01-16T08:38:44;2.40;;;2.30;;
6269;SDS011;3168;51.684;6.954;2024-01-16T08:41:10;5.10;;;3.00;;
6269;SDS011;3168;51.684;6.954;2024-01-16T08:43:36;3.17;;;2.70;;
6269;SDS011;3168;51.684;6.954;2024-01-16T08:46:02;19.63;;;4.27;;
6269;SDS011;3168;51.684;6.954;2024-01-16T08:48:28;8.30;;;2.77;;
6269;SDS011;3168;51.684;6.954;2024-01-16T08:50:54;3.00;;;2.50;;
6269;SDS011;3168;51.684;6.954;2024-01-16T08:53:20;7.57;;;2.50;;
6269;SDS011;3168;51.684;6.954;2024-01-16T08:55:46;3.40;;;3.03;;
6269;SDS011;3168;51.684;6.954;2024-01-16T08:58:12;2.10;;;2.00;;
6269;SDS011;3168;51.684;6.954;2024-01-16T09:00:37;3.17;;;3.00;;
6269;SDS011;3168;51.684;6.954;2024-01-16T09:03:03;2.20;;;2.13;;
6269;SDS011;3168;51.684;6.954;2024-01-16T09:05:29;1.40;;;1.40;;
6269;SDS011;3168;51.684;6.954;2024-01-16T09:07:56;2.83;;;2.70;;
6269;SDS011;3168;51.684;6.954;2024-01-16T09:10:21;19.93;;;3.00;;
6269;SDS011;3168;51.684;6.954;2024-01-16T09:12:47;2.93;;;2.73;;
6269;SDS011;3168;51.684;6.954;2024-01-16T09:15:13;2.63;;;2.43;;
6269;SDS011;3168;51.684;6.954;2024-01-16T09:17:39;2.23;;;2.13;;
6269;SDS011;3168;51.684;6.954;2024-01-16T09:20:05;7.23;;;2.20;;
6269;SDS011;3168;51.684;6.954;2024-01-16T09:22:32;2.87;;;2.47;;
6269;SDS011;3168;51.684;6.954;2024-01-16T09:24:58;2.13;;;2.03;;
6269;SDS011;3168;51.684;6.954;2024-01-16T09:27:24;1.90;;;1.90;;
6269;SDS011;3168;51.684;6.954;2024-01-16T09:29:50;3.00;;;2.70;;
6269;SDS011;3168;51.684;6.954;2024-01-16T09:32:15;5.30;;;2.43;;
6269;SDS011;3168;51.684;6.954;2024-01-16T09:34:41;2.60;;;2.40;;
6269;SDS011;3168;51.684;6.954;2024-01-16T09:37:07;3.70;;;1.60;;
6269;SDS011;3168;51.684;6.954;2024-01-16T09:39:33;2.27;;;2.17;;
6269;SDS011;3168;51.684;6.954;2024-01-16T09:41:59;2.43;;;2.33;;
6269;SDS011;3168;51.684;6.954;2024-01-16T09:44:24;8.87;;;2.77;;
6269;SDS011;3168;51.684;6.954;2024-01-16T09:46:50;3.37;;;2.17;;
6269;SDS011;3168;51.684;6.954;2024-01-16T09:49:16;2.70;;;2.50;;
6269;SDS011;3168;51.684;6.954;2024-01-16T09:51:42;9.80;;;2.60;;
6269;SDS011;3168;51.684;6.954;2024-01-16T09:54:08;2.20;;;1.97;;
6269;SDS011;3168;51.684;6.954;2024-01-16T09:56:33;2.00;;;1.97;;
6269;SDS011;3168;51.684;6.954;2024-01-16T09:59:02;1.97;;;1.97;;
6269;SDS011;3168;51.684;6.954;2024-01-16T10:01:26;3.57;;;2.97;;
6269;SDS011;3168;51.684;6.954;2024-01-16T10:03:51;2.10;;;2.00;;
6269;SDS011;3168;51.684;6.954;2024-01-16T10:06:17;1.50;;;1.40;;
6269;SDS011;3168;51.684;6.954;2024-01-16T10:08:42;2.30;;;2.13;;
6269;SDS011;3168;51.684;6.954;2024-01-16T10:11:08;1.67;;;1.60;;
6269;SDS011;3168;51.684;6.954;2024-01-16T10:13:34;1.63;;;1.53;;
6269;SDS011;3168;51.684;6.954;2024-01-16T10:16:00;2.43;;;2.10;;
6269;SDS011;3168;51.684;6.954;2024-01-16T10:18:27;8.50;;;2.10;;
6269;SDS011;3168;51.684;6.954;2024-01-16T10:20:53;1.30;;;1.30;;
6269;SDS011;3168;51.684;6.954;2024-01-16T10:23:22;1.13;;;1.13;;
6269;SDS011;3168;51.684;6.954;2024-01-16T10:28:29;4.93;;;2.00;;
6269;SDS011;3168;51.684;6.954;2024-01-16T10:31:01;2.93;;;1.63;;
6269;SDS011;3168;51.684;6.954;2024-01-16T10:33:27;6.47;;;2.03;;
6269;SDS011;3168;51.684;6.954;2024-01-16T10:38:31;2.20;;;1.73;;
6269;SDS011;3168;51.684;6.954;2024-01-16T10:41:04;4.23;;;1.90;;
6269;SDS011;3168;51.684;6.954;2024-01-16T10:43:29;5.80;;;2.13;;
6269;SDS011;3168;51.684;6.954;2024-01-16T10:45:58;4.20;;;3.97;;
6269;SDS011;3168;51.684;6.954;2024-01-16T10:48:21;3.90;;;2.50;;
6269;SDS011;3168;51.684;6.954;2024-01-16T10:50:47;3.33;;;2.87;;
6269;SDS011;3168;51.684;6.954;2024-01-16T10:53:13;2.37;;;2.27;;
6269;SDS011;3168;51.684;6.954;2024-01-16T10:55:48;6.67;;;2.60;;
6269;SDS011;3168;51.684;6.954;2024-01-16T10:58:10;4.40;;;3.60;;
6269;SDS011;3168;51.684;6.954;2024-01-16T11:00:36;3.27;;;1.73;;
6269;SDS011;3168;51.684;6.954;2024-01-16T11:03:04;6.80;;;2.53;;
6269;SDS011;3168;51.684;6.954;2024-01-16T11:05:29;3.13;;;2.90;;
6269;SDS011;3168;51.684;6.954;2024-01-16T11:07:55;3.70;;;2.60;;
6269;SDS011;3168;51.684;6.954;2024-01-16T11:10:21;1.90;;;1.90;;
6269;SDS011;3168;51.684;6.954;2024-01-16T11:12:47;3.83;;;3.53;;
6269;SDS011;3168;51.684;6.954;2024-01-16T11:15:13;1.83;;;1.73;;
6269;SDS011;3168;51.684;6.954;2024-01-16T11:17:39;1.80;;;1.67;;
6269;SDS011;3168;51.684;6.954;2024-01-16T11:20:05;5.07;;;2.23;;
6269;SDS011;3168;51.684;6.954;2024-01-16T11:22:33;2.60;;;2.50;;
6269;SDS011;3168;51.684;6.954;2024-01-16T11:27:33;4.23;;;3.27;;
6269;SDS011;3168;51.684;6.954;2024-01-16T11:29:59;3.07;;;2.87;;
6269;SDS011;3168;51.684;6.954;2024-01-16T11:34:58;3.77;;;3.40;;
6269;SDS011;3168;51.684;6.954;2024-01-16T11:37:26;2.50;;;2.40;;
6269;SDS011;3168;51.684;6.954;2024-01-16T11:39:52;2.27;;;2.17;;
6269;SDS011;3168;51.684;6.954;2024-01-16T11:42:25;2.43;;;2.23;;
6269;SDS011;3168;51.684;6.954;2024-01-16T11:44:47;3.77;;;2.80;;
6269;SDS011;3168;51.684;6.954;2024-01-16T11:47:16;4.63;;;3.33;;
6269;SDS011;3168;51.684;6.954;2024-01-16T11:49:41;5.17;;;2.17;;
6269;SDS011;3168;51.684;6.954;2024-01-16T11:52:07;2.73;;;2.10;;
6269;SDS011;3168;51.684;6.954;2024-01-16T11:54:33;1.60;;;1.60;;
6269;SDS011;3168;51.684;6.954;2024-01-16T11:57:04;1.90;;;1.80;;
6269;SDS011;3168;51.684;6.954;2024-01-16T12:00:05;2.80;;;1.80;;
6269;SDS011;3168;51.684;6.954;2024-01-16T12:02:18;1.97;;;1.87;;
6269;SDS011;3168;51.684;6.954;2024-01-16T12:04:40;4.00;;;2.53;;
6269;SDS011;3168;51.684;6.954;2024-01-16T12:07:06;4.10;;;2.40;;
6269;SDS011;3168;51.684;6.954;2024-01-16T12:09:32;1.63;;;1.63;;
6269;SDS011;3168;51.684;6.954;2024-01-16T12:12:00;2.40;;;2.20;;
6269;SDS011;3168;51.684;6.954;2024-01-16T12:14:25;2.20;;;2.10;;
6269;SDS011;3168;51.684;6.954;2024-01-16T12:16:50;2.63;;;2.43;;
6269;SDS011;3168;51.684;6.954;2024-01-16T12:19:16;5.77;;;1.73;;
6269;SDS011;3168;51.684;6.954;2024-01-16T12:21:43;12.23;;;3.20;;
6269;SDS011;3168;51.684;6.954;2024-01-16T12:24:09;3.53;;;2.37;;
6269;SDS011;3168;51.684;6.954;2024-01-16T12:26:36;1.70;;;1.60;;
6269;SDS011;3168;51.684;6.954;2024-01-16T12:29:02;3.87;;;2.80;;
6269;SDS011;3168;51.684;6.954;2024-01-16T12:31:27;5.93;;;2.90;;
6269;SDS011;3168;51.684;6.954;2024-01-16T12:33:54;3.13;;;2.70;;
6269;SDS011;3168;51.684;6.954;2024-01-16T12:36:19;2.70;;;2.50;;
6269;SDS011;3168;51.684;6.954;2024-01-16T12:38:45;1.00;;;1.00;;
6269;SDS011;3168;51.684;6.954;2024-01-16T12:41:11;3.07;;;2.70;;
6269;SDS011;3168;51.684;6.954;2024-01-16T12:43:37;10.83;;;4.27;;
6269;SDS011;3168;51.684;6.954;2024-01-16T12:46:03;3.87;;;2.07;;
6269;SDS011;3168;51.684;6.954;2024-01-16T12:48:29;2.47;;;2.10;;
6269;SDS011;3168;51.684;6.954;2024-01-16T12:50:59;6.57;;;1.70;;
6269;SDS011;3168;51.684;6.954;2024-01-16T12:53:28;2.30;;;1.33;;
6269;SDS011;3168;51.684;6.954;2024-01-16T12:55:57;2.20;;;2.10;;
6269;SDS011;3168;51.684;6.954;2024-01-16T12:58:23;3.20;;;3.00;;
6269;SDS011;3168;51.684;6.954;2024-01-16T13:00:50;1.60;;;1.60;;
6269;SDS011;3168;51.684;6.954;2024-01-16T13:03:16;2.17;;;2.00;;
6269;SDS011;3168;51.684;6.954;2024-01-16T13:05:41;1.53;;;1.50;;
6269;SDS011;3168;51.684;6.954;2024-01-16T13:08:07;7.40;;;2.87;;
6269;SDS011;3168;51.684;6.954;2024-01-16T13:10:33;2.13;;;2.07;;
6269;SDS011;3168;51.684;6.954;2024-01-16T13:15:37;5.23;;;2.07;;
6269;SDS011;3168;51.684;6.954;2024-01-16T13:18:02;2.53;;;1.97;;
6269;SDS011;3168;51.684;6.954;2024-01-16T13:20:28;2.87;;;2.30;;
6269;SDS011;3168;51.684;6.954;2024-01-16T13:22:54;2.90;;;1.97;;
6269;SDS011;3168;51.684;6.954;2024-01-16T13:25:20;2.33;;;2.23;;
6269;SDS011;3168;51.684;6.954;2024-01-16T13:27:46;2.03;;;1.93;;
6269;SDS011;3168;51.684;6.954;2024-01-16T13:30:12;4.10;;;2.70;;
6269;SDS011;3168;51.684;6.954;2024-01-16T13:32:38;1.87;;;1.77;;
6269;SDS011;3168;51.684;6.954;2024-01-16T13:35:05;3.70;;;2.20;;
6269;SDS011;3168;51.684;6.954;2024-01-16T13:37:32;2.40;;;2.20;;
6269;SDS011;3168;51.684;6.954;2024-01-16T13:39:58;3.20;;;2.93;;
6269;SDS011;3168;51.684;6.954;2024-01-16T13:42:24;3.03;;;2.20;;
6269;SDS011;3168;51.684;6.954;2024-01-16T13:44:50;4.10;;;3.20;;
6269;SDS011;3168;51.684;6.954;2024-01-16T13:47:16;5.97;;;3.47;;
6269;SDS011;3168;51.684;6.954;2024-01-16T13:49:41;4.50;;;2.80;;
6269;SDS011;3168;51.684;6.954;2024-01-16T13:52:07;7.77;;;2.90;;
6269;SDS011;3168;51.684;6.954;2024-01-16T13:54:35;9.83;;;4.97;;
6269;SDS011;3168;51.684;6.954;2024-01-16T13:56:59;10.70;;;2.60;;
6269;SDS011;3168;51.684;6.954;2024-01-16T13:59:26;5.20;;;3.43;;
6269;SDS011;3168;51.684;6.954;2024-01-16T14:01:51;3.27;;;3.07;;
6269;SDS011;3168;51.684;6.954;2024-01-16T14:04:17;4.47;;;3.97;;
6269;SDS011;3168;51.684;6.954;2024-01-16T14:06:44;2.13;;;2.03;;
6269;SDS011;3168;51.684;6.954;2024-01-16T14:09:10;2.60;;;2.40;;
6269;SDS011;3168;51.684;6.954;2024-01-16T14:11:36;3.87;;;3.57;;
6269;SDS011;3168;51.684;6.954;2024-01-16T14:14:01;6.67;;;3.33;;
6269;SDS011;3168;51.684;6.954;2024-01-16T14:16:28;3.30;;;3.10;;
6269;SDS011;3168;51.684;6.954;2024-01-16T14:18:54;4.30;;;3.23;;
6269;SDS011;3168;51.684;6.954;2024-01-16T14:21:20;5.67;;;3.00;;
6269;SDS011;3168;51.684;6.954;2024-01-16T14:23:46;3.10;;;2.90;;
6269;SDS011;3168;51.684;6.954;2024-01-16T14:26:13;2.47;;;2.47;;
6269;SDS011;3168;51.684;6.954;2024-01-16T14:28:40;4.03;;;2.33;;
6269;SDS011;3168;51.684;6.954;2024-01-16T14:31:06;6.30;;;5.80;;
6269;SDS011;3168;51.684;6.954;2024-01-16T14:33:34;6.90;;;2.30;;
6269;SDS011;3168;51.684;6.954;2024-01-16T14:35:58;2.07;;;2.07;;
6269;SDS011;3168;51.684;6.954;2024-01-16T14:38:25;4.03;;;1.70;;
6269;SDS011;3168;51.684;6.954;2024-01-16T14:40:51;2.60;;;2.50;;
6269;SDS011;3168;51.684;6.954;2024-01-16T14:43:18;5.53;;;3.03;;
6269;SDS011;3168;51.684;6.954;2024-01-16T14:45:44;2.57;;;2.33;;
6269;SDS011;3168;51.684;6.954;2024-01-16T14:48:09;3.00;;;2.80;;
6269;SDS011;3168;51.684;6.954;2024-01-16T14:50:35;5.27;;;4.20;;
6269;SDS011;3168;51.684;6.954;2024-01-16T14:53:01;7.43;;;2.80;;
6269;SDS011;3168;51.684;6.954;2024-01-16T14:55:27;2.90;;;2.30;;
6269;SDS011;3168;51.684;6.954;2024-01-16T14:57:53;4.57;;;3.20;;
6269;SDS011;3168;51.684;6.954;2024-01-16T15:00:19;5.30;;;3.33;;
6269;SDS011;3168;51.684;6.954;2024-01-16T15:02:46;4.53;;;4.17;;
6269;SDS011;3168;51.684;6.954;2024-01-16T15:05:12;7.90;;;3.10;;
6269;SDS011;3168;51.684;6.954;2024-01-16T15:07:38;3.47;;;3.00;;
6269;SDS011;3168;51.684;6.954;2024-01-16T15:10:05;2.57;;;2.47;;
6269;SDS011;3168;51.684;6.954;2024-01-16T15:12:31;3.87;;;2.50;;
6269;SDS011;3168;51.684;6.954;2024-01-16T15:14:57;2.50;;;2.40;;
6269;SDS011;3168;51.684;6.954;2024-01-16T15:17:23;3.17;;;2.97;;
6269;SDS011;3168;51.684;6.954;2024-01-16T15:19:49;2.90;;;2.80;;
6269;SDS011;3168;51.684;6.954;2024-01-16T15:22:15;2.63;;;2.53;;